sensor_id;sensor_type;location;lat;lon;timestamp;pressure;altitude;pressure_sealevel;temperature;humidity
82148;BME280;71718;50.480;12.110;2023-09-18T00:00:53;97420.44;;;18.16;61.66
82148;BME280;71718;50.480;12.110;2023-09-18T00:03:21;97415.13;;;18.11;61.81
82148;BME280;71718;50.480;12.110;2023-09-18T00:05:48;97415.69;;;18.13;61.77
82148;BME280;71718;50.480;12.110;2023-09-18T00:08:15;97411.72;;;18.11;61.66
82148;BME280;71718;50.480;12.110;2023-09-18T00:10:42;97415.13;;;18.11;61.80
82148;BME280;71718;50.480;12.110;2023-09-18T00:13:12;97401.25;;;18.11;61.53
82148;BME280;71718;50.480;12.110;2023-09-18T00:15:38;97401.81;;;18.13;61.52
82148;BME280;71718;50.480;12.110;2023-09-18T00:18:05;97400.44;;;18.10;61.47
82148;BME280;71718;50.480;12.110;2023-09-18T00:20:31;97400.44;;;18.10;61.30
82148;BME280;71718;50.480;12.110;2023-09-18T00:22:58;97400.94;;;18.07;61.26
82148;BME280;71718;50.480;12.110;2023-09-18T00:25:24;97397.47;;;18.02;61.60
82148;BME280;71718;50.480;12.110;2023-09-18T00:27:51;97396.44;;;18.03;61.51
82148;BME280;71718;50.480;12.110;2023-09-18T00:30:17;97386.50;;;18.05;61.10
82148;BME280;71718;50.480;12.110;2023-09-18T00:32:43;97379.63;;;17.99;61.52
82148;BME280;71718;50.480;12.110;2023-09-18T00:35:10;97377.75;;;17.94;61.81
82148;BME280;71718;50.480;12.110;2023-09-18T00:37:36;97370.16;;;17.93;61.69
82148;BME280;71718;50.480;12.110;2023-09-18T00:40:03;97362.03;;;17.94;61.68
82148;BME280;71718;50.480;12.110;2023-09-18T00:42:29;97354.50;;;17.98;61.49
82148;BME280;71718;50.480;12.110;2023-09-18T00:44:56;97359.47;;;17.99;61.40
82148;BME280;71718;50.480;12.110;2023-09-18T00:47:22;97348.47;;;17.97;61.53
82148;BME280;71718;50.480;12.110;2023-09-18T00:49:49;97344.22;;;17.91;61.42
82148;BME280;71718;50.480;12.110;2023-09-18T00:52:19;97343.19;;;17.92;61.62
82148;BME280;71718;50.480;12.110;2023-09-18T00:54:46;97332.38;;;17.89;61.90
82148;BME280;71718;50.480;12.110;2023-09-18T00:57:14;97326.31;;;17.83;61.81
82148;BME280;71718;50.480;12.110;2023-09-18T00:59:41;97329.19;;;17.81;61.90
82148;BME280;71718;50.480;12.110;2023-09-18T01:02:07;97326.00;;;17.79;61.71
82148;BME280;71718;50.480;12.110;2023-09-18T01:04:34;97334.03;;;17.73;61.37
82148;BME280;71718;50.480;12.110;2023-09-18T01:07:01;97332.16;;;17.68;62.13
82148;BME280;71718;50.480;12.110;2023-09-18T01:09:27;97338.69;;;17.66;61.95
82148;BME280;71718;50.480;12.110;2023-09-18T01:12:01;97315.38;;;17.64;62.23
82148;BME280;71718;50.480;12.110;2023-09-18T01:14:42;97310.00;;;17.54;62.55
82148;BME280;71718;50.480;12.110;2023-09-18T01:17:12;97319.09;;;17.52;62.44
82148;BME280;71718;50.480;12.110;2023-09-18T01:19:39;97309.63;;;17.46;62.59
82148;BME280;71718;50.480;12.110;2023-09-18T01:22:08;97314.31;;;17.43;62.75
82148;BME280;71718;50.480;12.110;2023-09-18T01:24:36;97303.28;;;17.41;62.85
82148;BME280;71718;50.480;12.110;2023-09-18T01:27:04;97298.38;;;17.45;62.56
82148;BME280;71718;50.480;12.110;2023-09-18T01:29:31;97296.06;;;17.49;62.51
82148;BME280;71718;50.480;12.110;2023-09-18T01:31:57;97301.06;;;17.50;62.12
82148;BME280;71718;50.480;12.110;2023-09-18T01:34:31;97303.66;;;17.50;62.36
82148;BME280;71718;50.480;12.110;2023-09-18T01:36:59;97292.09;;;17.46;62.50
82148;BME280;71718;50.480;12.110;2023-09-18T01:39:27;97297.59;;;17.45;62.22
82148;BME280;71718;50.480;12.110;2023-09-18T01:41:54;97288.66;;;17.40;62.42
82148;BME280;71718;50.480;12.110;2023-09-18T01:44:20;97290.75;;;17.43;62.12
82148;BME280;71718;50.480;12.110;2023-09-18T01:46:47;97286.75;;;17.36;62.43
82148;BME280;71718;50.480;12.110;2023-09-18T01:49:13;97279.09;;;17.29;62.86
82148;BME280;71718;50.480;12.110;2023-09-18T01:51:40;97281.09;;;17.22;62.85
82148;BME280;71718;50.480;12.110;2023-09-18T01:54:06;97278.19;;;17.19;62.90
82148;BME280;71718;50.480;12.110;2023-09-18T01:56:33;97270.25;;;17.14;63.18
82148;BME280;71718;50.480;12.110;2023-09-18T01:58:59;97267.31;;;17.10;63.33
82148;BME280;71718;50.480;12.110;2023-09-18T02:01:26;97268.91;;;17.11;63.45
82148;BME280;71718;50.480;12.110;2023-09-18T02:03:53;97275.44;;;17.09;63.27
82148;BME280;71718;50.480;12.110;2023-09-18T02:06:39;97266.28;;;17.11;63.07
82148;BME280;71718;50.480;12.110;2023-09-18T02:09:07;97262.09;;;17.10;63.00
82148;BME280;71718;50.480;12.110;2023-09-18T02:11:34;97264.66;;;17.05;63.18
82148;BME280;71718;50.480;12.110;2023-09-18T02:14:01;97261.97;;;17.00;63.52
82148;BME280;71718;50.480;12.110;2023-09-18T02:16:27;97263.78;;;16.99;63.45
82148;BME280;71718;50.480;12.110;2023-09-18T02:18:54;97258.50;;;16.94;63.25
82148;BME280;71718;50.480;12.110;2023-09-18T02:21:21;97261.03;;;16.89;63.41
82148;BME280;71718;50.480;12.110;2023-09-18T02:23:52;97254.47;;;16.87;63.57
82148;BME280;71718;50.480;12.110;2023-09-18T02:26:22;97256.59;;;16.90;63.85
82148;BME280;71718;50.480;12.110;2023-09-18T02:28:51;97244.59;;;16.89;64.07
82148;BME280;71718;50.480;12.110;2023-09-18T02:31:18;97244.59;;;16.89;63.88
82148;BME280;71718;50.480;12.110;2023-09-18T02:33:44;97244.09;;;16.92;63.90
82148;BME280;71718;50.480;12.110;2023-09-18T02:36:11;97245.41;;;16.94;63.80
82148;BME280;71718;50.480;12.110;2023-09-18T02:38:37;97238.88;;;16.92;63.49
82148;BME280;71718;50.480;12.110;2023-09-18T02:41:04;97243.31;;;16.91;63.18
82148;BME280;71718;50.480;12.110;2023-09-18T02:43:30;97240.06;;;16.84;63.36
82148;BME280;71718;50.480;12.110;2023-09-18T02:45:57;97235.56;;;16.80;63.67
82148;BME280;71718;50.480;12.110;2023-09-18T02:48:23;97233.22;;;16.78;63.91
82148;BME280;71718;50.480;12.110;2023-09-18T02:50:50;97243.31;;;16.75;63.94
82148;BME280;71718;50.480;12.110;2023-09-18T02:53:21;97235.03;;;16.78;64.35
82148;BME280;71718;50.480;12.110;2023-09-18T02:55:50;97234.47;;;16.76;64.17
82148;BME280;71718;50.480;12.110;2023-09-18T02:58:16;97233.97;;;16.79;63.97
82148;BME280;71718;50.480;12.110;2023-09-18T03:00:43;97231.63;;;16.77;63.70
82148;BME280;71718;50.480;12.110;2023-09-18T03:03:10;97227.13;;;16.73;63.84
82148;BME280;71718;50.480;12.110;2023-09-18T03:05:38;97234.69;;;16.74;63.75
82148;BME280;71718;50.480;12.110;2023-09-18T03:08:04;97232.09;;;16.74;63.78
82148;BME280;71718;50.480;12.110;2023-09-18T03:10:38;97228.75;;;16.79;63.59
82148;BME280;71718;50.480;12.110;2023-09-18T03:13:06;97225.09;;;16.80;63.42
82148;BME280;71718;50.480;12.110;2023-09-18T03:15:32;97227.66;;;16.75;63.47
82148;BME280;71718;50.480;12.110;2023-09-18T03:17:59;97226.56;;;16.71;63.51
82148;BME280;71718;50.480;12.110;2023-09-18T03:20:27;97225.47;;;16.67;63.52
82148;BME280;71718;50.480;12.110;2023-09-18T03:22:56;97221.19;;;16.61;63.63
82148;BME280;71718;50.480;12.110;2023-09-18T03:25:23;97226.81;;;16.52;63.75
82148;BME280;71718;50.480;12.110;2023-09-18T03:27:54;97221.25;;;16.49;63.78
82148;BME280;71718;50.480;12.110;2023-09-18T03:30:22;97218.03;;;16.42;63.98
82148;BME280;71718;50.480;12.110;2023-09-18T03:32:49;97206.00;;;16.41;63.89
82148;BME280;71718;50.480;12.110;2023-09-18T03:35:16;97203.38;;;16.41;64.00
82148;BME280;71718;50.480;12.110;2023-09-18T03:37:42;97190.00;;;16.37;63.87
82148;BME280;71718;50.480;12.110;2023-09-18T03:40:09;97186.06;;;16.35;63.89
82148;BME280;71718;50.480;12.110;2023-09-18T03:42:36;97178.16;;;16.30;63.92
82148;BME280;71718;50.480;12.110;2023-09-18T03:45:02;97181.69;;;16.24;64.27
82148;BME280;71718;50.480;12.110;2023-09-18T03:47:29;97170.41;;;16.18;64.25
82148;BME280;71718;50.480;12.110;2023-09-18T03:49:55;97175.53;;;16.13;64.30
82148;BME280;71718;50.480;12.110;2023-09-18T03:52:22;97166.13;;;16.12;64.19
82148;BME280;71718;50.480;12.110;2023-09-18T03:54:48;97164.00;;;16.09;64.22
82148;BME280;71718;50.480;12.110;2023-09-18T03:57:15;97158.53;;;16.10;64.12
82148;BME280;71718;50.480;12.110;2023-09-18T03:59:41;97151.44;;;16.06;64.20
82148;BME280;71718;50.480;12.110;2023-09-18T04:02:07;97151.81;;;15.98;64.31
82148;BME280;71718;50.480;12.110;2023-09-18T04:04:34;97155.94;;;15.94;64.15
82148;BME280;71718;50.480;12.110;2023-09-18T04:07:05;97151.72;;;15.93;64.04
82148;BME280;71718;50.480;12.110;2023-09-18T04:09:32;97141.72;;;15.85;64.44
82148;BME280;71718;50.480;12.110;2023-09-18T04:11:58;97131.72;;;15.82;64.66
82148;BME280;71718;50.480;12.110;2023-09-18T04:14:24;97136.41;;;15.80;64.45
82148;BME280;71718;50.480;12.110;2023-09-18T04:16:51;97135.22;;;15.87;64.56
82148;BME280;71718;50.480;12.110;2023-09-18T04:19:19;97138.75;;;15.81;64.43
82148;BME280;71718;50.480;12.110;2023-09-18T04:21:45;97129.59;;;15.79;64.55
82148;BME280;71718;50.480;12.110;2023-09-18T04:24:12;97120.69;;;15.75;64.56
82148;BME280;71718;50.480;12.110;2023-09-18T04:26:38;97121.69;;;15.73;64.50
82148;BME280;71718;50.480;12.110;2023-09-18T04:29:05;97118.28;;;15.73;64.61
82148;BME280;71718;50.480;12.110;2023-09-18T04:31:31;97113.16;;;15.78;64.58
82148;BME280;71718;50.480;12.110;2023-09-18T04:33:58;97109.03;;;15.82;64.31
82148;BME280;71718;50.480;12.110;2023-09-18T04:36:24;97104.53;;;15.78;64.38
82148;BME280;71718;50.480;12.110;2023-09-18T04:38:51;97103.97;;;15.76;64.60
82148;BME280;71718;50.480;12.110;2023-09-18T04:41:18;97106.56;;;15.76;64.64
82148;BME280;71718;50.480;12.110;2023-09-18T04:43:44;97100.97;;;15.67;65.04
82148;BME280;71718;50.480;12.110;2023-09-18T04:46:11;97095.97;;;15.65;65.07
82148;BME280;71718;50.480;12.110;2023-09-18T04:48:38;97093.63;;;15.64;65.28
82148;BME280;71718;50.480;12.110;2023-09-18T04:51:04;97089.75;;;15.66;64.89
82148;BME280;71718;50.480;12.110;2023-09-18T04:53:32;97096.84;;;15.71;64.65
82148;BME280;71718;50.480;12.110;2023-09-18T04:55:58;97106.56;;;15.76;64.85
82148;BME280;71718;50.480;12.110;2023-09-18T04:58:25;97094.66;;;15.80;64.72
82148;BME280;71718;50.480;12.110;2023-09-18T05:00:59;97098.38;;;15.84;64.56
82148;BME280;71718;50.480;12.110;2023-09-18T05:03:26;97100.97;;;15.84;64.50
82148;BME280;71718;50.480;12.110;2023-09-18T05:05:53;97100.41;;;15.82;64.67
82148;BME280;71718;50.480;12.110;2023-09-18T05:08:19;97098.91;;;15.86;64.35
82148;BME280;71718;50.480;12.110;2023-09-18T05:10:46;97096.63;;;15.89;64.26
82148;BME280;71718;50.480;12.110;2023-09-18T05:13:12;97092.75;;;15.92;63.96
82148;BME280;71718;50.480;12.110;2023-09-18T05:15:39;97103.03;;;15.98;64.00
82148;BME280;71718;50.480;12.110;2023-09-18T05:18:05;97100.25;;;16.05;63.63
82148;BME280;71718;50.480;12.110;2023-09-18T05:20:33;97103.66;;;16.05;63.75
82148;BME280;71718;50.480;12.110;2023-09-18T05:23:00;97101.13;;;16.10;63.44
82148;BME280;71718;50.480;12.110;2023-09-18T05:25:27;97096.75;;;16.16;63.26
82148;BME280;71718;50.480;12.110;2023-09-18T05:27:54;97107.56;;;16.25;63.20
82148;BME280;71718;50.480;12.110;2023-09-18T05:30:24;97104.00;;;16.31;62.91
82148;BME280;71718;50.480;12.110;2023-09-18T05:32:52;97095.97;;;16.37;62.64
82148;BME280;71718;50.480;12.110;2023-09-18T05:35:19;97089.00;;;16.43;62.76
82148;BME280;71718;50.480;12.110;2023-09-18T05:37:45;97079.19;;;16.50;62.20
82148;BME280;71718;50.480;12.110;2023-09-18T05:40:12;97078.53;;;16.60;61.91
82148;BME280;71718;50.480;12.110;2023-09-18T05:42:41;97070.81;;;16.70;62.10
82148;BME280;71718;50.480;12.110;2023-09-18T05:45:08;97073.00;;;16.78;61.31
82148;BME280;71718;50.480;12.110;2023-09-18T05:47:34;97069.44;;;16.84;60.97
82148;BME280;71718;50.480;12.110;2023-09-18T05:50:02;97074.72;;;16.89;60.86
82148;BME280;71718;50.480;12.110;2023-09-18T05:52:29;97061.41;;;16.95;61.00
82148;BME280;71718;50.480;12.110;2023-09-18T05:54:55;97053.72;;;17.11;60.14
82148;BME280;71718;50.480;12.110;2023-09-18T05:57:22;97042.94;;;17.29;59.89
82148;BME280;71718;50.480;12.110;2023-09-18T05:59:48;97035.19;;;17.44;61.47
82148;BME280;71718;50.480;12.110;2023-09-18T06:02:15;97041.13;;;17.61;58.63
82148;BME280;71718;50.480;12.110;2023-09-18T06:04:42;97044.41;;;17.83;58.29
82148;BME280;71718;50.480;12.110;2023-09-18T06:07:09;97048.97;;;18.03;58.05
82148;BME280;71718;50.480;12.110;2023-09-18T06:09:36;97032.34;;;18.30;57.46
82148;BME280;71718;50.480;12.110;2023-09-18T06:12:02;97034.28;;;18.49;56.75
82148;BME280;71718;50.480;12.110;2023-09-18T06:14:29;97036.22;;;18.69;55.84
82148;BME280;71718;50.480;12.110;2023-09-18T06:16:55;97035.97;;;18.81;55.58
82148;BME280;71718;50.480;12.110;2023-09-18T06:19:21;97030.78;;;18.96;55.17
82148;BME280;71718;50.480;12.110;2023-09-18T06:21:48;97033.41;;;19.11;54.86
82148;BME280;71718;50.480;12.110;2023-09-18T06:24:14;97027.38;;;19.21;54.22
82148;BME280;71718;50.480;12.110;2023-09-18T06:26:41;97020.81;;;19.33;54.13
82148;BME280;71718;50.480;12.110;2023-09-18T06:29:07;97022.69;;;19.43;54.75
82148;BME280;71718;50.480;12.110;2023-09-18T06:31:33;97021.91;;;19.63;53.63
82148;BME280;71718;50.480;12.110;2023-09-18T06:34:00;97023.69;;;19.87;53.47
82148;BME280;71718;50.480;12.110;2023-09-18T06:36:26;97029.94;;;20.07;52.94
82148;BME280;71718;50.480;12.110;2023-09-18T06:38:53;97032.00;;;20.25;52.42
82148;BME280;71718;50.480;12.110;2023-09-18T06:41:19;97028.03;;;20.38;51.98
82148;BME280;71718;50.480;12.110;2023-09-18T06:43:46;97028.75;;;20.58;53.73
82148;BME280;71718;50.480;12.110;2023-09-18T06:46:12;97044.25;;;20.60;54.70
82148;BME280;71718;50.480;12.110;2023-09-18T06:48:39;97055.84;;;20.54;52.90
82148;BME280;71718;50.480;12.110;2023-09-18T06:51:05;97055.78;;;20.64;57.16
82148;BME280;71718;50.480;12.110;2023-09-18T06:53:32;97055.69;;;20.84;52.70
82148;BME280;71718;50.480;12.110;2023-09-18T06:55:58;97077.16;;;21.06;51.85
82148;BME280;71718;50.480;12.110;2023-09-18T06:58:25;97070.69;;;21.33;50.94
82148;BME280;71718;50.480;12.110;2023-09-18T07:00:51;97077.91;;;21.51;51.52
82148;BME280;71718;50.480;12.110;2023-09-18T07:03:17;97068.13;;;21.56;50.92
82148;BME280;71718;50.480;12.110;2023-09-18T07:05:45;97081.44;;;21.75;56.76
82148;BME280;71718;50.480;12.110;2023-09-18T07:08:12;97066.88;;;21.83;50.96
82148;BME280;71718;50.480;12.110;2023-09-18T07:10:39;97058.31;;;22.01;51.29
82148;BME280;71718;50.480;12.110;2023-09-18T07:13:05;97065.38;;;22.06;49.19
82148;BME280;71718;50.480;12.110;2023-09-18T07:15:31;97063.75;;;22.10;50.83
82148;BME280;71718;50.480;12.110;2023-09-18T07:17:58;97060.88;;;22.30;52.67
82148;BME280;71718;50.480;12.110;2023-09-18T07:20:24;97059.31;;;22.53;53.30
82148;BME280;71718;50.480;12.110;2023-09-18T07:22:51;97065.47;;;22.67;51.67
82148;BME280;71718;50.480;12.110;2023-09-18T07:25:17;97064.88;;;22.94;52.14
82148;BME280;71718;50.480;12.110;2023-09-18T07:27:44;97058.47;;;23.00;48.85
82148;BME280;71718;50.480;12.110;2023-09-18T07:30:11;97053.75;;;23.15;51.00
82148;BME280;71718;50.480;12.110;2023-09-18T07:32:41;97049.41;;;23.24;51.03
82148;BME280;71718;50.480;12.110;2023-09-18T07:35:09;97054.09;;;23.27;47.45
82148;BME280;71718;50.480;12.110;2023-09-18T07:37:36;97069.69;;;23.43;50.05
82148;BME280;71718;50.480;12.110;2023-09-18T07:40:06;97067.53;;;23.50;47.71
82148;BME280;71718;50.480;12.110;2023-09-18T07:42:33;97065.59;;;23.55;46.95
82148;BME280;71718;50.480;12.110;2023-09-18T07:44:59;97058.66;;;23.73;51.71
82148;BME280;71718;50.480;12.110;2023-09-18T07:47:26;97062.88;;;23.74;50.91
82148;BME280;71718;50.480;12.110;2023-09-18T07:49:52;97062.97;;;23.69;48.22
82148;BME280;71718;50.480;12.110;2023-09-18T07:52:18;97070.13;;;23.68;52.00
82148;BME280;71718;50.480;12.110;2023-09-18T07:54:45;97073.84;;;23.67;50.96
82148;BME280;71718;50.480;12.110;2023-09-18T07:57:11;97065.13;;;23.67;50.80
82148;BME280;71718;50.480;12.110;2023-09-18T07:59:38;97071.41;;;23.71;49.36
82148;BME280;71718;50.480;12.110;2023-09-18T08:02:04;97064.09;;;23.82;50.67
82148;BME280;71718;50.480;12.110;2023-09-18T08:04:31;97073.91;;;23.95;49.27
82148;BME280;71718;50.480;12.110;2023-09-18T08:06:58;97084.28;;;24.05;48.93
82148;BME280;71718;50.480;12.110;2023-09-18T08:09:24;97080.38;;;24.02;47.92
82148;BME280;71718;50.480;12.110;2023-09-18T08:11:51;97087.13;;;23.95;47.36
82148;BME280;71718;50.480;12.110;2023-09-18T08:14:17;97089.97;;;23.98;48.14
82148;BME280;71718;50.480;12.110;2023-09-18T08:16:44;97084.91;;;24.15;49.26
82148;BME280;71718;50.480;12.110;2023-09-18T08:19:10;97084.53;;;24.36;47.42
82148;BME280;71718;50.480;12.110;2023-09-18T08:21:37;97085.53;;;24.53;48.84
82148;BME280;71718;50.480;12.110;2023-09-18T08:24:03;97069.47;;;24.64;47.01
82148;BME280;71718;50.480;12.110;2023-09-18T08:26:30;97059.88;;;24.54;46.25
82148;BME280;71718;50.480;12.110;2023-09-18T08:28:56;97062.13;;;24.33;46.47
82148;BME280;71718;50.480;12.110;2023-09-18T08:31:22;97049.59;;;24.39;48.71
82148;BME280;71718;50.480;12.110;2023-09-18T08:33:49;97057.91;;;24.32;46.78
82148;BME280;71718;50.480;12.110;2023-09-18T08:36:15;97052.44;;;24.42;48.22
82148;BME280;71718;50.480;12.110;2023-09-18T08:38:42;97056.13;;;24.41;46.62
82148;BME280;71718;50.480;12.110;2023-09-18T08:41:09;97053.81;;;24.40;47.27
82148;BME280;71718;50.480;12.110;2023-09-18T08:43:37;97046.75;;;24.22;46.29
82148;BME280;71718;50.480;12.110;2023-09-18T08:46:05;97053.97;;;24.16;47.72
82148;BME280;71718;50.480;12.110;2023-09-18T08:48:32;97051.69;;;24.09;48.02
82148;BME280;71718;50.480;12.110;2023-09-18T08:51:01;97045.94;;;24.07;47.68
82148;BME280;71718;50.480;12.110;2023-09-18T08:53:30;97036.09;;;23.94;48.35
82148;BME280;71718;50.480;12.110;2023-09-18T08:55:58;97036.31;;;23.98;48.84
82148;BME280;71718;50.480;12.110;2023-09-18T08:58:26;97062.34;;;23.91;48.66
82148;BME280;71718;50.480;12.110;2023-09-18T09:00:53;97065.50;;;23.93;48.97
82148;BME280;71718;50.480;12.110;2023-09-18T09:03:19;97043.94;;;23.99;50.35
82148;BME280;71718;50.480;12.110;2023-09-18T09:05:50;97037.81;;;24.04;47.84
82148;BME280;71718;50.480;12.110;2023-09-18T09:08:16;97049.28;;;24.27;50.22
82148;BME280;71718;50.480;12.110;2023-09-18T09:10:42;97026.56;;;24.53;50.09
82148;BME280;71718;50.480;12.110;2023-09-18T09:13:09;97022.59;;;25.14;47.42
82148;BME280;71718;50.480;12.110;2023-09-18T09:15:44;97020.00;;;25.45;48.25
82148;BME280;71718;50.480;12.110;2023-09-18T09:18:12;97030.09;;;25.56;45.94
82148;BME280;71718;50.480;12.110;2023-09-18T09:20:39;97029.56;;;25.68;47.41
82148;BME280;71718;50.480;12.110;2023-09-18T09:23:08;97037.38;;;25.73;45.04
82148;BME280;71718;50.480;12.110;2023-09-18T09:25:35;97030.94;;;25.96;45.40
82148;BME280;71718;50.480;12.110;2023-09-18T09:28:04;97043.72;;;26.25;43.68
82148;BME280;71718;50.480;12.110;2023-09-18T09:30:32;97031.41;;;26.38;43.44
82148;BME280;71718;50.480;12.110;2023-09-18T09:32:59;97029.13;;;26.14;45.15
82148;BME280;71718;50.480;12.110;2023-09-18T09:35:28;97035.00;;;26.33;43.76
82148;BME280;71718;50.480;12.110;2023-09-18T09:40:26;97023.94;;;26.40;46.08
82148;BME280;71718;50.480;12.110;2023-09-18T09:42:55;97027.28;;;26.62;45.20
82148;BME280;71718;50.480;12.110;2023-09-18T09:45:22;97022.19;;;26.92;44.00
82148;BME280;71718;50.480;12.110;2023-09-18T09:47:53;97025.81;;;27.04;43.39
82148;BME280;71718;50.480;12.110;2023-09-18T09:50:20;97024.38;;;27.24;43.25
82148;BME280;71718;50.480;12.110;2023-09-18T09:52:50;97024.38;;;27.33;44.34
82148;BME280;71718;50.480;12.110;2023-09-18T09:55:21;97014.47;;;27.68;44.21
82148;BME280;71718;50.480;12.110;2023-09-18T09:57:50;97009.59;;;27.78;41.58
82148;BME280;71718;50.480;12.110;2023-09-18T10:00:17;97005.38;;;27.77;41.21
82148;BME280;71718;50.480;12.110;2023-09-18T10:02:43;97012.06;;;27.92;42.33
82148;BME280;71718;50.480;12.110;2023-09-18T10:05:10;97008.53;;;27.71;40.94
82148;BME280;71718;50.480;12.110;2023-09-18T10:07:37;97000.25;;;27.64;41.02
82148;BME280;71718;50.480;12.110;2023-09-18T10:10:04;97002.03;;;27.51;41.25
82148;BME280;71718;50.480;12.110;2023-09-18T10:12:31;97001.84;;;27.56;40.62
82148;BME280;71718;50.480;12.110;2023-09-18T10:14:57;96999.63;;;27.41;40.60
82148;BME280;71718;50.480;12.110;2023-09-18T10:17:28;96999.03;;;27.53;41.75
82148;BME280;71718;50.480;12.110;2023-09-18T10:20:03;96998.25;;;27.26;41.27
82148;BME280;71718;50.480;12.110;2023-09-18T10:22:45;96992.34;;;27.29;41.29
82148;BME280;71718;50.480;12.110;2023-09-18T10:25:17;97002.94;;;27.38;42.27
82148;BME280;71718;50.480;12.110;2023-09-18T10:27:48;96994.34;;;27.50;41.46
82148;BME280;71718;50.480;12.110;2023-09-18T10:30:16;96995.94;;;27.25;40.50
82148;BME280;71718;50.480;12.110;2023-09-18T10:32:44;96996.38;;;27.27;41.77
82148;BME280;71718;50.480;12.110;2023-09-18T10:35:10;96986.84;;;27.34;40.91
82148;BME280;71718;50.480;12.110;2023-09-18T10:37:37;96982.78;;;27.37;40.50
82148;BME280;71718;50.480;12.110;2023-09-18T10:40:08;96985.59;;;27.32;41.36
82148;BME280;71718;50.480;12.110;2023-09-18T10:42:37;96990.09;;;27.66;42.21
82148;BME280;71718;50.480;12.110;2023-09-18T10:45:04;96989.63;;;27.64;40.57
82148;BME280;71718;50.480;12.110;2023-09-18T10:47:32;96982.13;;;27.66;41.08
82148;BME280;71718;50.480;12.110;2023-09-18T10:50:01;96983.13;;;27.90;39.71
82148;BME280;71718;50.480;12.110;2023-09-18T10:52:27;96985.13;;;28.02;40.04
82148;BME280;71718;50.480;12.110;2023-09-18T10:54:53;96989.53;;;27.89;39.32
82148;BME280;71718;50.480;12.110;2023-09-18T10:57:20;96991.72;;;27.96;38.70
82148;BME280;71718;50.480;12.110;2023-09-18T10:59:49;96993.81;;;28.11;39.61
82148;BME280;71718;50.480;12.110;2023-09-18T11:02:17;96990.66;;;27.80;38.29
82148;BME280;71718;50.480;12.110;2023-09-18T11:04:44;96985.88;;;27.65;38.52
82148;BME280;71718;50.480;12.110;2023-09-18T11:07:22;96983.66;;;27.75;39.58
82148;BME280;71718;50.480;12.110;2023-09-18T11:09:48;96988.41;;;27.61;39.14
82148;BME280;71718;50.480;12.110;2023-09-18T11:12:16;96988.72;;;27.51;41.09
82148;BME280;71718;50.480;12.110;2023-09-18T11:14:45;97001.81;;;27.47;40.33
82148;BME280;71718;50.480;12.110;2023-09-18T11:17:31;97010.28;;;27.58;41.09
82148;BME280;71718;50.480;12.110;2023-09-18T11:20:18;97009.50;;;27.66;39.38
82148;BME280;71718;50.480;12.110;2023-09-18T11:22:51;97003.53;;;27.69;41.31
82148;BME280;71718;50.480;12.110;2023-09-18T11:28:01;97022.16;;;27.43;41.39
82148;BME280;71718;50.480;12.110;2023-09-18T11:30:29;97019.66;;;27.38;40.78
82148;BME280;71718;50.480;12.110;2023-09-18T11:32:56;97025.16;;;27.25;42.01
82148;BME280;71718;50.480;12.110;2023-09-18T11:35:22;97031.13;;;27.04;42.29
82148;BME280;71718;50.480;12.110;2023-09-18T11:38:03;97042.28;;;26.84;41.50
82148;BME280;71718;50.480;12.110;2023-09-18T11:40:31;97048.69;;;26.66;42.64
82148;BME280;71718;50.480;12.110;2023-09-18T11:45:43;97056.28;;;26.42;44.46
82148;BME280;71718;50.480;12.110;2023-09-18T11:48:09;97060.72;;;26.24;42.32
82148;BME280;71718;50.480;12.110;2023-09-18T11:50:36;97067.31;;;26.04;44.55
82148;BME280;71718;50.480;12.110;2023-09-18T11:53:03;97071.63;;;25.92;44.67
82148;BME280;71718;50.480;12.110;2023-09-18T11:55:29;97069.84;;;25.78;43.32
82148;BME280;71718;50.480;12.110;2023-09-18T11:57:56;97078.16;;;25.63;44.86
82148;BME280;71718;50.480;12.110;2023-09-18T12:00:22;97062.97;;;25.55;45.34
82148;BME280;71718;50.480;12.110;2023-09-18T12:02:49;97067.41;;;25.46;45.74
82148;BME280;71718;50.480;12.110;2023-09-18T12:05:16;97070.47;;;25.39;46.41
82148;BME280;71718;50.480;12.110;2023-09-18T12:07:45;97065.00;;;25.36;45.90
82148;BME280;71718;50.480;12.110;2023-09-18T12:10:13;97074.09;;;25.44;45.01
82148;BME280;71718;50.480;12.110;2023-09-18T12:12:42;97071.25;;;25.40;45.65
82148;BME280;71718;50.480;12.110;2023-09-18T12:15:12;97083.16;;;25.29;46.18
82148;BME280;71718;50.480;12.110;2023-09-18T12:17:39;97073.56;;;25.33;46.42
82148;BME280;71718;50.480;12.110;2023-09-18T12:20:06;97084.03;;;25.38;45.60
82148;BME280;71718;50.480;12.110;2023-09-18T12:22:33;97081.44;;;25.47;46.14
82148;BME280;71718;50.480;12.110;2023-09-18T12:25:10;97078.63;;;25.65;46.58
82148;BME280;71718;50.480;12.110;2023-09-18T12:27:41;97077.25;;;25.68;45.77
82148;BME280;71718;50.480;12.110;2023-09-18T12:30:08;97077.19;;;25.81;45.07
82148;BME280;71718;50.480;12.110;2023-09-18T12:32:38;97081.41;;;25.83;45.81
82148;BME280;71718;50.480;12.110;2023-09-18T12:35:06;97103.13;;;25.71;45.57
82148;BME280;71718;50.480;12.110;2023-09-18T12:37:34;97103.38;;;25.61;45.74
82148;BME280;71718;50.480;12.110;2023-09-18T12:40:01;97107.88;;;25.38;45.70
82148;BME280;71718;50.480;12.110;2023-09-18T12:42:28;97104.69;;;25.27;45.23
82148;BME280;71718;50.480;12.110;2023-09-18T12:44:54;97112.09;;;24.89;46.91
82148;BME280;71718;50.480;12.110;2023-09-18T12:47:21;97117.97;;;24.73;46.53
82148;BME280;71718;50.480;12.110;2023-09-18T12:49:47;97128.06;;;24.71;46.77
82148;BME280;71718;50.480;12.110;2023-09-18T12:52:21;97133.38;;;24.71;47.39
82148;BME280;71718;50.480;12.110;2023-09-18T12:54:49;97134.81;;;24.63;46.71
82148;BME280;71718;50.480;12.110;2023-09-18T12:57:16;97145.22;;;24.60;47.52
82148;BME280;71718;50.480;12.110;2023-09-18T12:59:43;97135.72;;;24.59;47.00